Time;durP1;ratioP1;P1;durP2;ratioP2;P2;SDS_P1;SDS_P2;PMS_P1;PMS_P2;Temp;Humidity;BMP_temperature;BMP_pressure;BME280_temperature;BME280_humidity;BME280_pressure;Samples;Min_cycle;Max_cycle;Signal;HPM_P1;HPM_P2
2022/05/05 00:01:47;;;;;;;;;;;14.10;92.60;;;;;;5030682;28;19917;-69
2022/05/05 00:04:13;;;;;;;;;;;14.00;92.50;;;;;;5031251;28;19921;-69
2022/05/05 00:06:38;;;;;;;;;;;14.00;92.80;;;;;;5029423;28;19917;-69
2022/05/05 00:09:04;;;;;;;;;;;14.00;92.90;;;;;;5031651;28;19913;-71
2022/05/05 00:14:31;;;;;;;;;;;14.00;92.40;;;;;;5031657;28;19955;-71
2022/05/05 00:16:57;;;;;;;;;;;14.00;92.90;;;;;;5027940;28;19923;-71
2022/05/05 00:19:23;;;;;;;;;;;13.90;93.40;;;;;;5030600;28;19921;-69
2022/05/05 00:21:49;;;;;;;;;;;13.90;93.10;;;;;;5027510;28;19920;-72
2022/05/05 00:24:16;;;;;;;;;;;13.80;93.60;;;;;;5030579;28;20327;-73
2022/05/05 00:26:42;;;;;;;;;;;13.80;93.20;;;;;;5030187;28;19913;-71
2022/05/05 00:29:08;;;;;;;;;;;13.80;93.40;;;;;;5036392;28;20297;-71
2022/05/05 00:31:33;;;;;;;;;;;13.80;93.40;;;;;;5030882;28;19913;-71
2022/05/05 00:33:59;;;;;;;;;;;13.70;93.40;;;;;;5030475;28;19917;-72
2022/05/05 00:36:24;;;;;;;;;;;13.70;93.40;;;;;;5029780;28;19964;-71
2022/05/05 00:38:50;;;;;;;;;;;13.70;93.50;;;;;;5050659;28;19928;-71
2022/05/05 00:41:15;;;;;;;;;;;13.60;93.40;;;;;;5043552;28;20015;-71
2022/05/05 00:43:41;;;;;;;;;;;13.60;93.10;;;;;;5034507;28;20370;-72
2022/05/05 00:46:06;;;;;;;;;;;13.50;93.80;;;;;;5027010;28;19913;-72
2022/05/05 00:48:32;;;;;;;;;;;13.50;93.60;;;;;;5026810;28;19925;-70
2022/05/05 00:50:57;;;;;;;;;;;13.40;93.70;;;;;;5031656;28;19931;-71
2022/05/05 00:53:24;;;;;;;;;;;13.40;93.80;;;;;;5029428;28;20398;-71
2022/05/05 00:55:54;;;;;;;;;;;13.30;93.90;;;;;;5029771;28;19913;-72
2022/05/05 00:58:20;;;;;;;;;;;13.30;93.50;;;;;;5035939;28;19975;-70
2022/05/05 01:00:45;;;;;;;;;;;13.20;93.60;;;;;;5027805;28;19913;-72
2022/05/05 01:03:11;;;;;;;;;;;13.20;93.60;;;;;;5043668;28;20357;-72
2022/05/05 01:05:38;;;;;;;;;;;13.10;93.80;;;;;;5046033;28;20389;-71
2022/05/05 01:08:04;;;;;;;;;;;13.10;93.70;;;;;;5029166;28;19956;-72
2022/05/05 01:10:30;;;;;;;;;;;13.10;93.90;;;;;;5029395;28;19913;-71
2022/05/05 01:12:55;;;;;;;;;;;13.00;93.90;;;;;;5032487;28;19987;-70
2022/05/05 01:15:21;;;;;;;;;;;13.00;94.00;;;;;;5044754;28;20079;-70
2022/05/05 01:17:46;;;;;;;;;;;13.00;93.70;;;;;;5029809;28;19971;-70
2022/05/05 01:20:16;;;;;;;;;;;13.00;93.70;;;;;;5033829;28;19913;-71
2022/05/05 01:22:42;;;;;;;;;;;12.90;93.80;;;;;;5034409;28;20286;-69
2022/05/05 01:30:35;;;;;;;;;;;12.90;93.90;;;;;;5028704;28;20332;-73
2022/05/05 01:33:01;;;;;;;;;;;12.90;94.10;;;;;;5030254;28;19913;-73
2022/05/05 01:35:26;;;;;;;;;;;12.90;93.90;;;;;;5031132;28;19909;-74
2022/05/05 01:37:52;;;;;;;;;;;12.80;94.20;;;;;;5027289;28;19994;-73
2022/05/05 01:40:17;;;;;;;;;;;12.80;94.20;;;;;;5025672;28;19932;-74
2022/05/05 01:42:43;;;;;;;;;;;12.80;94.60;;;;;;5033433;28;19921;-74
2022/05/05 01:45:09;;;;;;;;;;;12.70;94.30;;;;;;5046841;28;19908;-73
2022/05/05 01:47:36;;;;;;;;;;;12.70;94.40;;;;;;5026432;28;19925;-74
2022/05/05 01:50:02;;;;;;;;;;;12.70;94.40;;;;;;5029165;28;19917;-73
2022/05/05 01:52:28;;;;;;;;;;;12.60;94.50;;;;;;5029204;28;20016;-74
2022/05/05 01:54:53;;;;;;;;;;;12.60;94.50;;;;;;5029631;28;19996;-73
2022/05/05 01:57:19;;;;;;;;;;;12.60;94.50;;;;;;5027536;28;19921;-74
2022/05/05 01:59:44;;;;;;;;;;;12.60;94.10;;;;;;5028926;28;19909;-74
2022/05/05 02:02:10;;;;;;;;;;;12.50;94.60;;;;;;5029109;28;19960;-74
2022/05/05 02:04:35;;;;;;;;;;;12.50;94.50;;;;;;5029225;28;19959;-73
2022/05/05 02:07:01;;;;;;;;;;;12.50;94.60;;;;;;5028010;28;19913;-73
2022/05/05 02:09:26;;;;;;;;;;;12.50;94.30;;;;;;5029479;28;20323;-74
2022/05/05 02:11:53;;;;;;;;;;;12.50;94.50;;;;;;5030583;28;19916;-72
2022/05/05 02:14:20;;;;;;;;;;;12.40;94.20;;;;;;5029897;28;19982;-73
2022/05/05 02:16:45;;;;;;;;;;;12.40;94.60;;;;;;5034655;28;19920;-73
2022/05/05 02:19:11;;;;;;;;;;;12.40;94.30;;;;;;5033971;28;20309;-73
2022/05/05 02:21:36;;;;;;;;;;;12.40;94.70;;;;;;5047801;28;19920;-73
2022/05/05 02:24:02;;;;;;;;;;;12.40;94.90;;;;;;5033776;28;19909;-73
2022/05/05 02:26:27;;;;;;;;;;;12.30;95.20;;;;;;5031747;28;20519;-72
2022/05/05 02:28:53;;;;;;;;;;;12.30;95.00;;;;;;5033939;28;19920;-73
2022/05/05 02:31:18;;;;;;;;;;;12.30;95.70;;;;;;5037992;28;19917;-72
2022/05/05 02:33:44;;;;;;;;;;;12.20;95.70;;;;;;5019129;28;19943;-73
2022/05/05 02:38:55;;;;;;;;;;;12.20;96.30;;;;;;5033863;28;20479;-74
2022/05/05 02:41:20;;;;;;;;;;;12.20;96.70;;;;;;5029007;28;19913;-73
2022/05/05 02:43:46;;;;;;;;;;;12.10;96.70;;;;;;5031319;28;19917;-73
2022/05/05 02:46:11;;;;;;;;;;;12.10;97.10;;;;;;5031752;28;20393;-70
2022/05/05 02:48:37;;;;;;;;;;;12.10;97.30;;;;;;5029812;28;19929;-72
2022/05/05 02:51:03;;;;;;;;;;;12.10;97.00;;;;;;5033312;28;19923;-74
2022/05/05 02:56:12;;;;;;;;;;;12.10;97.70;;;;;;5032441;28;20043;-72
2022/05/05 02:58:38;;;;;;;;;;;12.10;97.00;;;;;;5034880;28;20007;-72
2022/05/05 03:01:03;;;;;;;;;;;12.10;97.00;;;;;;5037527;28;19935;-72
2022/05/05 03:03:29;;;;;;;;;;;12.10;96.70;;;;;;5031511;28;20004;-73
2022/05/05 03:05:54;;;;;;;;;;;12.10;96.70;;;;;;5033485;28;20374;-71
2022/05/05 03:08:20;;;;;;;;;;;12.10;97.10;;;;;;5030329;28;19909;-72
2022/05/05 03:10:45;;;;;;;;;;;12.10;97.50;;;;;;5032905;28;19913;-71
2022/05/05 03:13:11;;;;;;;;;;;12.10;97.70;;;;;;5042271;28;19916;-73
2022/05/05 03:15:36;;;;;;;;;;;12.00;97.40;;;;;;5037117;28;19946;-72
2022/05/05 03:18:02;;;;;;;;;;;12.00;97.20;;;;;;5031780;28;20397;-72
2022/05/05 03:20:28;;;;;;;;;;;12.00;98.10;;;;;;5032288;28;19967;-71
2022/05/05 03:22:53;;;;;;;;;;;12.00;97.50;;;;;;5032232;28;20000;-72
2022/05/05 03:25:19;;;;;;;;;;;12.00;98.50;;;;;;5028553;28;20298;-72
2022/05/05 03:27:44;;;;;;;;;;;11.90;98.50;;;;;;5029592;28;19917;-73
2022/05/05 03:30:10;;;;;;;;;;;11.90;98.60;;;;;;5031422;28;20330;-72
2022/05/05 03:32:35;;;;;;;;;;;11.90;98.60;;;;;;5033142;28;19960;-73
2022/05/05 03:35:01;;;;;;;;;;;11.90;98.70;;;;;;5038561;28;20406;-73
2022/05/05 03:37:33;;;;;;;;;;;11.90;99.00;;;;;;5031934;28;19928;-73
2022/05/05 03:39:58;;;;;;;;;;;11.80;99.00;;;;;;5031961;28;19909;-72
2022/05/05 03:42:24;;;;;;;;;;;11.80;99.50;;;;;;5034841;28;19921;-72
2022/05/05 03:44:50;;;;;;;;;;;11.80;99.00;;;;;;5032949;28;20020;-73
2022/05/05 03:47:15;;;;;;;;;;;11.70;99.70;;;;;;5038028;28;19974;-71
2022/05/05 03:49:41;;;;;;;;;;;11.70;99.50;;;;;;5022464;28;19963;-72
2022/05/05 03:52:07;;;;;;;;;;;11.70;99.50;;;;;;5029495;28;19917;-73
2022/05/05 03:54:33;;;;;;;;;;;11.70;99.50;;;;;;5042405;28;19913;-73
2022/05/05 03:56:58;;;;;;;;;;;11.70;99.70;;;;;;5032741;28;19920;-73
2022/05/05 03:59:24;;;;;;;;;;;11.70;99.60;;;;;;5029955;28;19956;-72
2022/05/05 04:01:50;;;;;;;;;;;11.70;99.50;;;;;;5030051;28;19960;-72
2022/05/05 04:04:16;;;;;;;;;;;11.70;99.70;;;;;;5027685;28;19968;-71
2022/05/05 04:06:41;;;;;;;;;;;11.70;99.70;;;;;;5028928;28;19913;-72
2022/05/05 04:09:07;;;;;;;;;;;11.70;99.90;;;;;;5031432;28;20012;-72
2022/05/05 04:11:33;;;;;;;;;;;11.70;99.90;;;;;;5029342;28;19913;-71
2022/05/05 04:13:58;;;;;;;;;;;11.70;99.90;;;;;;5037411;28;20400;-71
2022/05/05 04:16:24;;;;;;;;;;;11.60;99.90;;;;;;5033930;28;20390;-71
2022/05/05 04:18:49;;;;;;;;;;;11.60;99.90;;;;;;5031520;28;19925;-72
2022/05/05 04:21:15;;;;;;;;;;;11.60;99.90;;;;;;5044976;28;19909;-70
2022/05/05 04:23:40;;;;;;;;;;;11.60;99.90;;;;;;5032508;28;19909;-70
2022/05/05 04:26:06;;;;;;;;;;;11.60;99.90;;;;;;5029372;28;19920;-71
2022/05/05 04:28:32;;;;;;;;;;;11.60;99.90;;;;;;5029955;28;20006;-70
2022/05/05 04:30:58;;;;;;;;;;;11.60;99.90;;;;;;5031054;28;19964;-71
2022/05/05 04:33:23;;;;;;;;;;;11.50;99.90;;;;;;5030411;28;19949;-71
2022/05/05 04:35:49;;;;;;;;;;;11.60;99.90;;;;;;5033599;28;20430;-71
2022/05/05 04:38:15;;;;;;;;;;;11.50;99.90;;;;;;5026454;28;19980;-73
2022/05/05 04:40:40;;;;;;;;;;;11.50;99.90;;;;;;5030442;28;19917;-72
2022/05/05 04:43:06;;;;;;;;;;;11.50;99.90;;;;;;5029666;28;19924;-71
2022/05/05 04:45:31;;;;;;;;;;;11.40;99.90;;;;;;5046007;28;19913;-70
2022/05/05 04:47:58;;;;;;;;;;;11.40;99.90;;;;;;5032343;28;19925;-72
2022/05/05 04:50:24;;;;;;;;;;;11.40;99.90;;;;;;5027800;28;20318;-72
2022/05/05 04:52:50;;;;;;;;;;;11.40;99.90;;;;;;5036804;28;19927;-73
2022/05/05 04:55:16;;;;;;;;;;;11.40;99.90;;;;;;5035946;28;20004;-72
2022/05/05 04:57:42;;;;;;;;;;;11.30;99.90;;;;;;5039643;28;19960;-71
2022/05/05 05:00:08;;;;;;;;;;;11.30;99.90;;;;;;5047536;28;20259;-72
2022/05/05 05:02:34;;;;;;;;;;;11.30;99.90;;;;;;5031346;28;20362;-72
2022/05/05 05:05:00;;;;;;;;;;;11.40;99.90;;;;;;5029634;28;19919;-73
2022/05/05 05:07:25;;;;;;;;;;;11.40;99.90;;;;;;5028743;28;20374;-73
2022/05/05 05:09:51;;;;;;;;;;;11.40;99.90;;;;;;5027492;28;19967;-71
2022/05/05 05:12:16;;;;;;;;;;;11.40;99.90;;;;;;5029933;28;19918;-72
2022/05/05 05:14:41;;;;;;;;;;;11.30;99.90;;;;;;5029106;28;19919;-71
2022/05/05 05:17:07;;;;;;;;;;;11.30;99.90;;;;;;5026552;28;19921;-71
2022/05/05 05:19:32;;;;;;;;;;;11.40;99.90;;;;;;5031962;28;19913;-70
2022/05/05 05:21:58;;;;;;;;;;;11.40;99.90;;;;;;5026349;28;19920;-69
2022/05/05 05:24:23;;;;;;;;;;;11.40;99.90;;;;;;5027491;28;19925;-69
2022/05/05 05:26:49;;;;;;;;;;;11.50;99.90;;;;;;5028049;28;19932;-72
2022/05/05 05:29:15;;;;;;;;;;;11.50;99.90;;;;;;5031557;28;19944;-70
2022/05/05 05:31:40;;;;;;;;;;;11.50;99.90;;;;;;5033665;28;19939;-71
2022/05/05 05:34:06;;;;;;;;;;;11.50;99.90;;;;;;5028336;28;19913;-71
2022/05/05 05:36:31;;;;;;;;;;;11.60;99.90;;;;;;5043851;28;19920;-71
2022/05/05 05:38:57;;;;;;;;;;;11.60;99.90;;;;;;5030410;28;19921;-71
2022/05/05 05:41:22;;;;;;;;;;;11.60;99.90;;;;;;5034688;28;19913;-69
2022/05/05 05:43:48;;;;;;;;;;;11.70;99.90;;;;;;5034577;28;19967;-70
2022/05/05 05:46:13;;;;;;;;;;;11.70;99.90;;;;;;5030567;28;19916;-69
2022/05/05 05:48:39;;;;;;;;;;;11.70;99.90;;;;;;5040425;28;19921;-69
2022/05/05 05:51:05;;;;;;;;;;;11.80;99.90;;;;;;5050824;28;19912;-70
2022/05/05 05:53:31;;;;;;;;;;;11.80;99.90;;;;;;5044769;28;19909;-69
2022/05/05 05:55:56;;;;;;;;;;;11.90;99.90;;;;;;5036961;28;19920;-69
2022/05/05 05:58:23;;;;;;;;;;;11.90;99.90;;;;;;5029975;28;19921;-69
2022/05/05 06:00:48;;;;;;;;;;;12.00;99.90;;;;;;5041192;28;19955;-69
2022/05/05 06:05:59;;;;;;;;;;;12.10;99.90;;;;;;5035421;28;20329;-68
2022/05/05 06:08:24;;;;;;;;;;;12.10;99.90;;;;;;5031150;28;20004;-68
2022/05/05 06:10:50;;;;;;;;;;;12.10;99.90;;;;;;5033926;28;20433;-68
2022/05/05 06:13:15;;;;;;;;;;;12.10;99.90;;;;;;5030086;28;19913;-67
2022/05/05 06:15:41;;;;;;;;;;;12.20;99.90;;;;;;5030784;28;19917;-68
2022/05/05 06:18:06;;;;;;;;;;;12.20;99.90;;;;;;5034077;28;19921;-66
2022/05/05 06:20:34;;;;;;;;;;;12.30;99.90;;;;;;5035164;28;20255;-68
2022/05/05 06:23:00;;;;;;;;;;;12.30;99.90;;;;;;5033135;28;19914;-65
2022/05/05 06:25:26;;;;;;;;;;;12.30;99.90;;;;;;5030775;28;19932;-67
2022/05/05 06:27:52;;;;;;;;;;;12.30;99.90;;;;;;5035346;28;19960;-67
2022/05/05 06:30:17;;;;;;;;;;;12.30;99.90;;;;;;5032534;28;19923;-68
2022/05/05 06:32:44;;;;;;;;;;;12.40;99.90;;;;;;5037552;28;19909;-68
2022/05/05 06:35:10;;;;;;;;;;;12.40;99.90;;;;;;5028510;28;19917;-60
2022/05/05 06:37:36;;;;;;;;;;;12.40;99.90;;;;;;5038211;28;19916;-62
2022/05/05 06:40:02;;;;;;;;;;;12.50;99.90;;;;;;5034953;28;20313;-62
2022/05/05 06:42:28;;;;;;;;;;;12.50;99.90;;;;;;5037786;28;19913;-61
2022/05/05 06:44:53;;;;;;;;;;;12.60;99.90;;;;;;5036866;28;19999;-60
2022/05/05 06:47:19;;;;;;;;;;;12.60;99.90;;;;;;5035357;28;19925;-61
2022/05/05 06:49:44;;;;;;;;;;;12.70;99.90;;;;;;5034093;28;19924;-61
2022/05/05 06:52:10;;;;;;;;;;;12.70;99.90;;;;;;5034841;28;19913;-61
2022/05/05 06:54:35;;;;;;;;;;;12.70;99.90;;;;;;5035742;28;20465;-60
2022/05/05 06:57:01;;;;;;;;;;;12.80;99.90;;;;;;5035794;28;20370;-61
2022/05/05 06:59:26;;;;;;;;;;;12.80;99.90;;;;;;5037321;28;19917;-60
2022/05/05 07:01:52;;;;;;;;;;;12.80;99.90;;;;;;5033790;28;19913;-60
2022/05/05 07:07:02;;;;;;;;;;;12.90;99.90;;;;;;5041716;28;19920;-61
2022/05/05 07:12:12;;;;;;;;;;;13.00;99.90;;;;;;5039476;28;20285;-58
2022/05/05 07:14:38;;;;;;;;;;;13.00;99.90;;;;;;5020587;28;19917;-59
2022/05/05 07:17:03;;;;;;;;;;;13.00;99.90;;;;;;5023559;28;19917;-58
2022/05/05 07:19:29;;;;;;;;;;;13.00;99.90;;;;;;5025582;28;19917;-58
2022/05/05 07:21:54;;;;;;;;;;;13.00;99.90;;;;;;5022223;28;20336;-57
2022/05/05 07:24:20;;;;;;;;;;;13.00;99.90;;;;;;5016205;28;20079;-58
2022/05/05 07:26:45;;;;;;;;;;;13.00;99.90;;;;;;5021779;28;19928;-58
2022/05/05 07:29:11;;;;;;;;;;;12.90;99.90;;;;;;5020155;28;19913;-58
2022/05/05 07:31:36;;;;;;;;;;;12.90;99.90;;;;;;5031952;28;19924;-59
2022/05/05 07:34:02;;;;;;;;;;;13.00;99.90;;;;;;5033645;28;19971;-58
2022/05/05 07:36:27;;;;;;;;;;;13.00;99.90;;;;;;5023270;28;19918;-58
2022/05/05 07:38:53;;;;;;;;;;;13.00;99.90;;;;;;5025806;28;19921;-58
2022/05/05 07:41:18;;;;;;;;;;;13.10;99.90;;;;;;5022301;28;19919;-58
2022/05/05 07:43:44;;;;;;;;;;;13.10;99.90;;;;;;5020707;28;19921;-59
2022/05/05 07:46:09;;;;;;;;;;;13.20;99.90;;;;;;5024104;28;19914;-59
2022/05/05 07:48:35;;;;;;;;;;;13.20;99.90;;;;;;5024053;28;19980;-56
2022/05/05 07:51:00;;;;;;;;;;;13.20;99.90;;;;;;5026345;28;19970;-58
2022/05/05 07:53:26;;;;;;;;;;;13.30;99.90;;;;;;5027103;28;19917;-59
2022/05/05 07:55:51;;;;;;;;;;;13.30;99.90;;;;;;5026784;28;20377;-58
2022/05/05 07:58:17;;;;;;;;;;;13.40;99.90;;;;;;5026732;28;20354;-59
2022/05/05 08:00:42;;;;;;;;;;;13.40;99.90;;;;;;5019995;28;20000;-57
2022/05/05 08:03:08;;;;;;;;;;;13.50;99.90;;;;;;5026529;28;19934;-58
2022/05/05 08:05:33;;;;;;;;;;;13.50;99.90;;;;;;5026622;28;19917;-59
2022/05/05 08:07:59;;;;;;;;;;;13.50;99.90;;;;;;5021915;28;19945;-58
2022/05/05 08:10:28;;;;;;;;;;;13.50;99.90;;;;;;5021432;28;20312;-56
2022/05/05 08:12:54;;;;;;;;;;;13.60;99.90;;;;;;5024018;28;19987;-58
2022/05/05 08:15:19;;;;;;;;;;;13.60;99.90;;;;;;5021075;28;20008;-58
2022/05/05 08:17:46;;;;;;;;;;;13.70;99.90;;;;;;5020758;28;19967;-55
2022/05/05 08:20:12;;;;;;;;;;;13.70;99.90;;;;;;5019116;28;20011;-58
2022/05/05 08:22:38;;;;;;;;;;;13.80;99.90;;;;;;5027836;28;20438;-58
2022/05/05 08:30:32;;;;;;;;;;;13.70;99.90;;;;;;5020889;28;19924;-58
2022/05/05 08:32:58;;;;;;;;;;;13.80;99.90;;;;;;5027937;28;19917;-58
2022/05/05 08:35:24;;;;;;;;;;;13.80;99.90;;;;;;5021676;28;20134;-58
2022/05/05 08:37:50;;;;;;;;;;;13.90;99.90;;;;;;5023080;28;19921;-59
2022/05/05 08:40:17;;;;;;;;;;;13.90;99.90;;;;;;5023396;28;19999;-58
2022/05/05 08:42:42;;;;;;;;;;;14.00;99.90;;;;;;5025598;28;20057;-59
2022/05/05 08:45:08;;;;;;;;;;;14.00;99.90;;;;;;5026797;28;19996;-59
2022/05/05 08:47:33;;;;;;;;;;;14.10;99.90;;;;;;5029296;28;19921;-59
2022/05/05 08:50:00;;;;;;;;;;;14.10;99.90;;;;;;5024941;28;19914;-58
2022/05/05 08:52:27;;;;;;;;;;;14.10;99.90;;;;;;5031559;28;19921;-58
2022/05/05 08:54:53;;;;;;;;;;;14.20;99.90;;;;;;5024631;28;19928;-58
2022/05/05 08:57:18;;;;;;;;;;;14.30;99.90;;;;;;5024158;28;19918;-59
2022/05/05 08:59:44;;;;;;;;;;;14.40;99.90;;;;;;5020893;28;19921;-59
2022/05/05 09:02:10;;;;;;;;;;;14.40;99.90;;;;;;5022401;28;20503;-58
2022/05/05 09:04:36;;;;;;;;;;;14.50;99.90;;;;;;5022025;28;20397;-59
2022/05/05 09:07:01;;;;;;;;;;;14.60;99.90;;;;;;5019772;28;19944;-59
2022/05/05 09:09:30;;;;;;;;;;;14.70;99.90;;;;;;5017108;28;19967;-58
2022/05/05 09:12:14;;;;;;;;;;;14.70;99.90;;;;;;5024206;28;19913;-59
2022/05/05 09:14:44;;;;;;;;;;;14.80;99.90;;;;;;5028746;28;19920;-59
2022/05/05 09:17:10;;;;;;;;;;;14.90;99.90;;;;;;5018663;28;19967;-59
2022/05/05 09:19:37;;;;;;;;;;;14.90;99.90;;;;;;5020139;28;19917;-59
2022/05/05 09:22:03;;;;;;;;;;;15.00;99.90;;;;;;5025080;28;19971;-58
2022/05/05 09:24:35;;;;;;;;;;;15.10;99.90;;;;;;5021010;28;20016;-59
2022/05/05 09:27:16;;;;;;;;;;;15.20;99.80;;;;;;5020083;28;20004;-59
2022/05/05 09:29:42;;;;;;;;;;;15.30;99.90;;;;;;5021357;28;19974;-61
2022/05/05 09:32:11;;;;;;;;;;;15.30;99.90;;;;;;5022360;28;20367;-59
2022/05/05 09:34:37;;;;;;;;;;;15.40;99.90;;;;;;5024317;28;20015;-59
2022/05/05 09:37:29;;;;;;;;;;;15.40;99.40;;;;;;5015997;28;19924;-59
2022/05/05 09:39:59;;;;;;;;;;;15.40;99.30;;;;;;5020580;28;19980;-59
2022/05/05 09:42:36;;;;;;;;;;;15.50;99.30;;;;;;5025767;28;20409;-59
2022/05/05 09:45:16;;;;;;;;;;;15.50;99.40;;;;;;5024371;28;19917;-60
2022/05/05 09:47:42;;;;;;;;;;;15.60;99.50;;;;;;5024125;28;19944;-59
2022/05/05 09:50:08;;;;;;;;;;;15.60;98.70;;;;;;5018855;28;19920;-59
2022/05/05 09:58:03;;;;;;;;;;;15.70;98.50;;;;;;5017830;28;19924;-59
2022/05/05 10:05:45;;;;;;;;;;;15.70;97.00;;;;;;5028552;28;19962;-59
2022/05/05 10:08:14;;;;;;;;;;;15.80;97.20;;;;;;5020168;28;19921;-59
2022/05/05 10:10:40;;;;;;;;;;;15.90;97.20;;;;;;5017058;28;19913;-59
2022/05/05 10:13:07;;;;;;;;;;;16.00;96.10;;;;;;5021165;28;19963;-60
2022/05/05 10:15:35;;;;;;;;;;;16.00;96.50;;;;;;5024127;28;19917;-59
2022/05/05 10:18:04;;;;;;;;;;;16.10;96.40;;;;;;5019013;28;19970;-59
2022/05/05 10:20:33;;;;;;;;;;;16.10;95.80;;;;;;5023981;28;19921;-60
2022/05/05 10:23:11;;;;;;;;;;;16.10;95.30;;;;;;5024773;28;19917;-58
2022/05/05 10:25:37;;;;;;;;;;;16.10;95.10;;;;;;5017439;28;20398;-60
2022/05/05 10:28:03;;;;;;;;;;;16.00;95.10;;;;;;5021966;28;20379;-59
2022/05/05 10:30:35;;;;;;;;;;;16.10;94.00;;;;;;5022223;28;19914;-59
2022/05/05 10:33:01;;;;;;;;;;;16.10;94.10;;;;;;5022669;28;20020;-59
2022/05/05 10:35:36;;;;;;;;;;;16.20;94.00;;;;;;5021531;28;19964;-60
2022/05/05 10:38:02;;;;;;;;;;;16.20;94.00;;;;;;5024145;28;19928;-60
2022/05/05 10:40:42;;;;;;;;;;;16.20;92.40;;;;;;5026114;28;19917;-59
2022/05/05 10:43:09;;;;;;;;;;;16.10;93.20;;;;;;5023151;28;20326;-59
2022/05/05 10:45:34;;;;;;;;;;;16.10;93.60;;;;;;5024499;28;20017;-60
2022/05/05 10:48:06;;;;;;;;;;;16.10;93.20;;;;;;5028327;28;20006;-58
2022/05/05 10:50:32;;;;;;;;;;;16.00;93.70;;;;;;5018876;28;19972;-58
2022/05/05 10:52:58;;;;;;;;;;;16.10;93.90;;;;;;5025022;28;19913;-60
2022/05/05 10:55:26;;;;;;;;;;;16.10;93.60;;;;;;5028018;28;19959;-59
2022/05/05 10:57:54;;;;;;;;;;;16.10;93.50;;;;;;5020969;28;19999;-60
2022/05/05 11:00:22;;;;;;;;;;;16.20;93.60;;;;;;5023154;28;19940;-59
2022/05/05 11:03:03;;;;;;;;;;;16.20;93.20;;;;;;5026604;28;20389;-60
2022/05/05 11:05:30;;;;;;;;;;;16.20;93.30;;;;;;5031115;28;19913;-60
2022/05/05 11:08:24;;;;;;;;;;;16.30;92.80;;;;;;5024047;28;19917;-60
2022/05/05 11:13:35;;;;;;;;;;;16.40;92.50;;;;;;5027341;28;19919;-61
2022/05/05 11:22:04;;;;;;;;;;;16.60;93.00;;;;;;5026363;28;19920;-61
2022/05/05 11:24:30;;;;;;;;;;;16.70;92.20;;;;;;5020524;28;20019;-60
2022/05/05 11:26:55;;;;;;;;;;;16.60;90.30;;;;;;5025352;28;20382;-60
2022/05/05 11:29:20;;;;;;;;;;;16.50;90.40;;;;;;5021548;28;20267;-59
2022/05/05 11:31:56;;;;;;;;;;;16.40;89.60;;;;;;5024070;28;19923;-60
2022/05/05 11:34:21;;;;;;;;;;;16.40;90.20;;;;;;5023177;28;19917;-60
2022/05/05 11:36:47;;;;;;;;;;;16.40;90.60;;;;;;5026683;28;20285;-60
2022/05/05 11:39:19;;;;;;;;;;;16.30;90.80;;;;;;5025052;28;19921;-61
2022/05/05 11:41:55;;;;;;;;;;;16.30;90.60;;;;;;5018208;28;19973;-60
2022/05/05 11:44:21;;;;;;;;;;;16.40;90.70;;;;;;5026534;28;19939;-60
2022/05/05 11:46:47;;;;;;;;;;;16.40;91.10;;;;;;5023024;28;20310;-61
2022/05/05 11:49:13;;;;;;;;;;;16.40;90.90;;;;;;5024452;28;19917;-60
2022/05/05 11:51:38;;;;;;;;;;;16.50;90.70;;;;;;5024292;28;19947;-60
2022/05/05 11:54:04;;;;;;;;;;;16.50;90.80;;;;;;5025636;28;20345;-60
2022/05/05 11:56:30;;;;;;;;;;;16.50;90.60;;;;;;5020548;28;19928;-61
2022/05/05 12:01:52;;;;;;;;;;;16.50;90.40;;;;;;5023146;28;19924;-60
2022/05/05 12:04:18;;;;;;;;;;;16.60;90.70;;;;;;5024460;28;19913;-60
2022/05/05 12:06:43;;;;;;;;;;;16.70;90.20;;;;;;5023557;28;19928;-60
2022/05/05 12:09:09;;;;;;;;;;;16.70;90.50;;;;;;5019551;28;20012;-60
2022/05/05 12:11:35;;;;;;;;;;;16.70;90.30;;;;;;5026484;28;19960;-60
2022/05/05 12:14:03;;;;;;;;;;;16.80;90.50;;;;;;5017512;28;20372;-60
2022/05/05 12:16:30;;;;;;;;;;;16.80;90.00;;;;;;5025535;28;19917;-61
2022/05/05 12:18:56;;;;;;;;;;;16.80;88.60;;;;;;5018606;28;20426;-60
2022/05/05 12:21:22;;;;;;;;;;;16.80;87.90;;;;;;5022595;28;19953;-60
2022/05/05 12:24:01;;;;;;;;;;;16.80;88.40;;;;;;5024085;28;20049;-60
2022/05/05 12:26:28;;;;;;;;;;;16.90;87.80;;;;;;5019250;28;19918;-59
2022/05/05 12:28:53;;;;;;;;;;;16.90;89.10;;;;;;5024664;28;19917;-60
2022/05/05 12:31:23;;;;;;;;;;;17.00;88.70;;;;;;5024358;28;19920;-60
2022/05/05 12:33:48;;;;;;;;;;;17.10;89.20;;;;;;5024953;28;19916;-60
2022/05/05 12:36:14;;;;;;;;;;;17.10;88.20;;;;;;5024822;28;19928;-60
2022/05/05 12:38:39;;;;;;;;;;;17.10;88.10;;;;;;5025582;28;19921;-60
2022/05/05 12:41:06;;;;;;;;;;;17.10;88.90;;;;;;5024413;28;20029;-60
2022/05/05 12:43:32;;;;;;;;;;;17.20;87.10;;;;;;5025397;28;19972;-61
2022/05/05 12:46:01;;;;;;;;;;;17.20;87.30;;;;;;5026312;28;20019;-60
2022/05/05 12:48:27;;;;;;;;;;;17.20;86.40;;;;;;5028036;28;20321;-60
2022/05/05 12:50:53;;;;;;;;;;;17.20;86.60;;;;;;5024805;28;20397;-60
2022/05/05 13:01:37;;;;;;;;;;;17.50;84.80;;;;;;5018746;28;20011;-60
2022/05/05 13:04:08;;;;;;;;;;;17.50;85.80;;;;;;5020960;28;19983;-60
2022/05/05 13:06:35;;;;;;;;;;;17.50;84.00;;;;;;5020839;28;19917;-60
2022/05/05 13:09:00;;;;;;;;;;;17.50;83.60;;;;;;5022866;28;20403;-58
2022/05/05 13:11:26;;;;;;;;;;;17.50;82.30;;;;;;5020805;28;20426;-61
2022/05/05 13:13:52;;;;;;;;;;;17.50;83.20;;;;;;5023888;28;20461;-60
2022/05/05 13:16:17;;;;;;;;;;;17.50;83.00;;;;;;5021715;28;19917;-59
2022/05/05 13:18:43;;;;;;;;;;;17.60;80.40;;;;;;5016852;28;19944;-60
2022/05/05 13:21:09;;;;;;;;;;;17.60;82.60;;;;;;5022480;28;20004;-60
2022/05/05 13:23:35;;;;;;;;;;;17.70;81.40;;;;;;5023850;28;19917;-59
2022/05/05 13:26:00;;;;;;;;;;;17.80;80.90;;;;;;5022091;28;19914;-59
2022/05/05 13:28:26;;;;;;;;;;;17.80;81.80;;;;;;5022480;28;19919;-59
2022/05/05 13:30:51;;;;;;;;;;;17.90;80.10;;;;;;5023145;28;19913;-61
2022/05/05 13:33:17;;;;;;;;;;;17.80;80.30;;;;;;5019640;28;20007;-60
2022/05/05 13:35:43;;;;;;;;;;;17.80;79.90;;;;;;5021841;28;19918;-60
2022/05/05 13:38:08;;;;;;;;;;;17.80;78.20;;;;;;5019694;28;19927;-59
2022/05/05 13:40:34;;;;;;;;;;;17.80;79.30;;;;;;5023134;28;19913;-60
2022/05/05 13:43:00;;;;;;;;;;;17.80;79.50;;;;;;5017416;28;20020;-60
2022/05/05 13:45:26;;;;;;;;;;;17.90;80.10;;;;;;5021872;28;19948;-58
2022/05/05 13:47:52;;;;;;;;;;;17.80;79.10;;;;;;5023745;28;19921;-60
2022/05/05 13:50:17;;;;;;;;;;;17.80;79.20;;;;;;5026521;28;19924;-60
2022/05/05 13:52:45;;;;;;;;;;;17.80;79.00;;;;;;5019982;28;19913;-59
2022/05/05 13:55:12;;;;;;;;;;;17.80;77.60;;;;;;5018044;28;19914;-60
2022/05/05 13:57:38;;;;;;;;;;;17.70;75.50;;;;;;5020827;28;19957;-59
2022/05/05 14:00:04;;;;;;;;;;;17.60;76.40;;;;;;5025793;28;19952;-60
2022/05/05 14:02:30;;;;;;;;;;;17.60;76.90;;;;;;5022046;28;19917;-59
2022/05/05 14:04:55;;;;;;;;;;;17.60;77.40;;;;;;5022697;28;19922;-59
2022/05/05 14:12:10;;;;;;;;;;;17.60;78.50;;;;;;5019632;28;19917;-59
2022/05/05 14:12:51;;;;;;;;;;;17.50;77.40;;;;;;5028045;28;20516;-59
2022/05/05 14:15:16;;;;;;;;;;;17.50;76.90;;;;;;5030702;28;20012;-59
2022/05/05 14:17:42;;;;;;;;;;;17.50;77.20;;;;;;5023346;28;20290;-57
2022/05/05 14:20:07;;;;;;;;;;;17.60;77.40;;;;;;5023849;28;19920;-60
2022/05/05 14:22:33;;;;;;;;;;;17.60;77.20;;;;;;5024346;28;20291;-58
2022/05/05 14:24:58;;;;;;;;;;;17.60;77.40;;;;;;5024723;28;19917;-59
2022/05/05 14:27:24;;;;;;;;;;;17.70;76.80;;;;;;5020549;28;19961;-60
2022/05/05 14:29:49;;;;;;;;;;;17.70;77.40;;;;;;5026334;28;19982;-61
2022/05/05 14:32:15;;;;;;;;;;;17.70;75.80;;;;;;5026211;28;19917;-60
2022/05/05 14:34:40;;;;;;;;;;;17.70;76.00;;;;;;5024681;28;19999;-60
2022/05/05 14:37:07;;;;;;;;;;;17.70;76.50;;;;;;5019466;28;19913;-60
2022/05/05 14:39:33;;;;;;;;;;;17.70;76.70;;;;;;5024004;28;20403;-60
2022/05/05 14:41:58;;;;;;;;;;;17.70;76.90;;;;;;5027599;28;20015;-60
2022/05/05 14:44:24;;;;;;;;;;;17.70;77.60;;;;;;5022920;28;20028;-60
2022/05/05 14:46:49;;;;;;;;;;;17.70;76.40;;;;;;5026285;28;19990;-60
2022/05/05 14:49:15;;;;;;;;;;;17.80;76.60;;;;;;5025364;28;19921;-60
2022/05/05 14:51:40;;;;;;;;;;;17.80;77.30;;;;;;5024950;28;19921;-59
2022/05/05 14:54:06;;;;;;;;;;;17.90;76.70;;;;;;5028830;28;19917;-59
2022/05/05 14:56:31;;;;;;;;;;;17.90;77.00;;;;;;5030223;28;19948;-60
2022/05/05 14:58:57;;;;;;;;;;;17.90;76.00;;;;;;5028888;28;19925;-59
2022/05/05 15:01:22;;;;;;;;;;;17.90;76.80;;;;;;5028922;28;19921;-59
2022/05/05 15:03:48;;;;;;;;;;;17.90;77.00;;;;;;5028949;28;19917;-60
2022/05/05 15:06:15;;;;;;;;;;;17.90;76.30;;;;;;5029844;28;19913;-60
2022/05/05 15:08:41;;;;;;;;;;;17.90;76.90;;;;;;5032089;28;20007;-59
2022/05/05 15:11:06;;;;;;;;;;;17.90;76.50;;;;;;5028453;28;20007;-60
2022/05/05 15:13:32;;;;;;;;;;;17.90;76.60;;;;;;5026637;28;19913;-60